sensor_id;sensor_type;location;lat;lon;timestamp;P1;durP1;ratioP1;P2;durP2;ratioP2
42420;SDS011;28063;48.140;11.588;2023-11-18T00:01:55;6.07;;;5.25;;
42420;SDS011;28063;48.140;11.588;2023-11-18T00:04:21;6.72;;;5.63;;
42420;SDS011;28063;48.140;11.588;2023-11-18T00:06:47;7.15;;;5.65;;
42420;SDS011;28063;48.140;11.588;2023-11-18T00:09:14;7.53;;;6.20;;
42420;SDS011;28063;48.140;11.588;2023-11-18T00:11:40;8.35;;;6.95;;
42420;SDS011;28063;48.140;11.588;2023-11-18T00:14:07;8.95;;;5.93;;
42420;SDS011;28063;48.140;11.588;2023-11-18T00:16:33;9.02;;;6.78;;
42420;SDS011;28063;48.140;11.588;2023-11-18T00:19:00;9.93;;;7.38;;
42420;SDS011;28063;48.140;11.588;2023-11-18T00:21:30;7.53;;;6.55;;
42420;SDS011;28063;48.140;11.588;2023-11-18T00:23:56;7.30;;;6.00;;
42420;SDS011;28063;48.140;11.588;2023-11-18T00:26:23;8.27;;;6.82;;
42420;SDS011;28063;48.140;11.588;2023-11-18T00:28:50;7.82;;;6.78;;
42420;SDS011;28063;48.140;11.588;2023-11-18T00:31:16;8.80;;;6.72;;
42420;SDS011;28063;48.140;11.588;2023-11-18T00:33:43;9.80;;;7.07;;
42420;SDS011;28063;48.140;11.588;2023-11-18T00:36:09;6.43;;;5.35;;
42420;SDS011;28063;48.140;11.588;2023-11-18T00:38:35;6.75;;;5.45;;
42420;SDS011;28063;48.140;11.588;2023-11-18T00:41:01;7.60;;;6.18;;
42420;SDS011;28063;48.140;11.588;2023-11-18T00:43:27;5.97;;;5.38;;
42420;SDS011;28063;48.140;11.588;2023-11-18T00:45:53;5.68;;;5.07;;
42420;SDS011;28063;48.140;11.588;2023-11-18T00:48:19;4.88;;;4.43;;
42420;SDS011;28063;48.140;11.588;2023-11-18T00:50:45;4.85;;;4.35;;
42420;SDS011;28063;48.140;11.588;2023-11-18T00:53:11;5.32;;;4.43;;
42420;SDS011;28063;48.140;11.588;2023-11-18T00:55:38;9.40;;;4.40;;
42420;SDS011;28063;48.140;11.588;2023-11-18T00:58:04;4.28;;;3.80;;
42420;SDS011;28063;48.140;11.588;2023-11-18T01:00:30;5.68;;;4.00;;
42420;SDS011;28063;48.140;11.588;2023-11-18T01:02:57;3.85;;;3.15;;
42420;SDS011;28063;48.140;11.588;2023-11-18T01:05:23;3.85;;;3.45;;
42420;SDS011;28063;48.140;11.588;2023-11-18T01:07:49;5.25;;;3.15;;
42420;SDS011;28063;48.140;11.588;2023-11-18T01:10:15;4.00;;;3.38;;
42420;SDS011;28063;48.140;11.588;2023-11-18T01:12:41;3.35;;;2.97;;
42420;SDS011;28063;48.140;11.588;2023-11-18T01:15:10;3.30;;;2.90;;
42420;SDS011;28063;48.140;11.588;2023-11-18T01:17:37;3.03;;;2.72;;
42420;SDS011;28063;48.140;11.588;2023-11-18T01:20:04;2.80;;;2.50;;
42420;SDS011;28063;48.140;11.588;2023-11-18T01:22:35;2.58;;;2.33;;
42420;SDS011;28063;48.140;11.588;2023-11-18T01:25:01;3.20;;;2.28;;
42420;SDS011;28063;48.140;11.588;2023-11-18T01:27:27;2.40;;;2.20;;
42420;SDS011;28063;48.140;11.588;2023-11-18T01:29:53;2.67;;;2.47;;
42420;SDS011;28063;48.140;11.588;2023-11-18T01:32:19;2.60;;;2.40;;
42420;SDS011;28063;48.140;11.588;2023-11-18T01:34:46;3.22;;;2.90;;
42420;SDS011;28063;48.140;11.588;2023-11-18T01:37:18;2.78;;;2.53;;
42420;SDS011;28063;48.140;11.588;2023-11-18T01:39:46;3.28;;;2.95;;
42420;SDS011;28063;48.140;11.588;2023-11-18T01:42:12;2.85;;;2.60;;
42420;SDS011;28063;48.140;11.588;2023-11-18T01:44:38;3.33;;;2.53;;
42420;SDS011;28063;48.140;11.588;2023-11-18T01:47:05;3.08;;;2.28;;
42420;SDS011;28063;48.140;11.588;2023-11-18T01:49:35;2.40;;;2.20;;
42420;SDS011;28063;48.140;11.588;2023-11-18T01:52:05;2.67;;;2.47;;
42420;SDS011;28063;48.140;11.588;2023-11-18T01:54:32;2.13;;;1.92;;
42420;SDS011;28063;48.140;11.588;2023-11-18T01:56:58;3.08;;;2.78;;
42420;SDS011;28063;48.140;11.588;2023-11-18T01:59:27;2.97;;;2.63;;
42420;SDS011;28063;48.140;11.588;2023-11-18T02:01:55;2.90;;;2.65;;
42420;SDS011;28063;48.140;11.588;2023-11-18T02:04:24;3.83;;;2.47;;
42420;SDS011;28063;48.140;11.588;2023-11-18T02:06:51;2.45;;;2.17;;
42420;SDS011;28063;48.140;11.588;2023-11-18T02:09:18;2.88;;;2.45;;
42420;SDS011;28063;48.140;11.588;2023-11-18T02:11:46;3.08;;;2.78;;
42420;SDS011;28063;48.140;11.588;2023-11-18T02:14:15;4.32;;;2.88;;
42420;SDS011;28063;48.140;11.588;2023-11-18T02:16:42;3.10;;;2.38;;
42420;SDS011;28063;48.140;11.588;2023-11-18T02:19:09;2.60;;;2.40;;
42420;SDS011;28063;48.140;11.588;2023-11-18T02:21:38;2.50;;;2.30;;
42420;SDS011;28063;48.140;11.588;2023-11-18T02:24:05;2.88;;;2.08;;
42420;SDS011;28063;48.140;11.588;2023-11-18T02:26:31;2.60;;;2.40;;
42420;SDS011;28063;48.140;11.588;2023-11-18T02:28:57;2.75;;;2.55;;
42420;SDS011;28063;48.140;11.588;2023-11-18T02:31:27;3.53;;;2.58;;
42420;SDS011;28063;48.140;11.588;2023-11-18T02:34:05;2.78;;;2.50;;
42420;SDS011;28063;48.140;11.588;2023-11-18T02:36:39;2.20;;;2.00;;
42420;SDS011;28063;48.140;11.588;2023-11-18T02:39:08;1.75;;;1.65;;
42420;SDS011;28063;48.140;11.588;2023-11-18T02:41:41;2.35;;;1.85;;
42420;SDS011;28063;48.140;11.588;2023-11-18T02:44:10;1.92;;;1.83;;
42420;SDS011;28063;48.140;11.588;2023-11-18T02:46:36;2.20;;;2.00;;
42420;SDS011;28063;48.140;11.588;2023-11-18T02:49:03;2.60;;;2.40;;
42420;SDS011;28063;48.140;11.588;2023-11-18T02:51:29;3.22;;;2.40;;
42420;SDS011;28063;48.140;11.588;2023-11-18T02:54:04;2.20;;;2.00;;
42420;SDS011;28063;48.140;11.588;2023-11-18T02:56:31;3.28;;;2.58;;
42420;SDS011;28063;48.140;11.588;2023-11-18T02:58:57;2.53;;;2.33;;
42420;SDS011;28063;48.140;11.588;2023-11-18T03:01:24;2.80;;;2.47;;
42420;SDS011;28063;48.140;11.588;2023-11-18T03:03:52;2.13;;;2.03;;
42420;SDS011;28063;48.140;11.588;2023-11-18T03:06:19;2.85;;;2.63;;
42420;SDS011;28063;48.140;11.588;2023-11-18T03:08:46;3.22;;;2.40;;
42420;SDS011;28063;48.140;11.588;2023-11-18T03:11:12;2.35;;;2.13;;
42420;SDS011;28063;48.140;11.588;2023-11-18T03:13:38;2.92;;;2.60;;
42420;SDS011;28063;48.140;11.588;2023-11-18T03:16:08;2.45;;;2.25;;
42420;SDS011;28063;48.140;11.588;2023-11-18T03:18:40;3.20;;;2.90;;
42420;SDS011;28063;48.140;11.588;2023-11-18T03:21:12;3.15;;;2.85;;
42420;SDS011;28063;48.140;11.588;2023-11-18T03:23:39;3.22;;;2.92;;
42420;SDS011;28063;48.140;11.588;2023-11-18T03:26:06;2.67;;;2.40;;
42420;SDS011;28063;48.140;11.588;2023-11-18T03:28:32;2.50;;;2.30;;
42420;SDS011;28063;48.140;11.588;2023-11-18T03:30:58;2.60;;;2.40;;
42420;SDS011;28063;48.140;11.588;2023-11-18T03:33:24;3.03;;;2.72;;
42420;SDS011;28063;48.140;11.588;2023-11-18T03:35:50;2.70;;;2.50;;
42420;SDS011;28063;48.140;11.588;2023-11-18T03:38:16;5.00;;;2.80;;
42420;SDS011;28063;48.140;11.588;2023-11-18T03:40:42;2.70;;;2.50;;
42420;SDS011;28063;48.140;11.588;2023-11-18T03:43:10;2.92;;;2.63;;
42420;SDS011;28063;48.140;11.588;2023-11-18T03:45:39;2.50;;;2.30;;
42420;SDS011;28063;48.140;11.588;2023-11-18T03:48:06;2.40;;;2.20;;
42420;SDS011;28063;48.140;11.588;2023-11-18T03:50:33;2.20;;;2.00;;
42420;SDS011;28063;48.140;11.588;2023-11-18T03:52:59;2.63;;;2.22;;
42420;SDS011;28063;48.140;11.588;2023-11-18T03:55:26;2.38;;;2.03;;
42420;SDS011;28063;48.140;11.588;2023-11-18T03:57:52;2.28;;;2.08;;
42420;SDS011;28063;48.140;11.588;2023-11-18T04:00:19;2.47;;;2.28;;
42420;SDS011;28063;48.140;11.588;2023-11-18T04:02:45;3.28;;;2.95;;
42420;SDS011;28063;48.140;11.588;2023-11-18T04:05:12;3.40;;;3.10;;
42420;SDS011;28063;48.140;11.588;2023-11-18T04:07:38;3.30;;;3.00;;
42420;SDS011;28063;48.140;11.588;2023-11-18T04:10:08;3.88;;;3.28;;
42420;SDS011;28063;48.140;11.588;2023-11-18T04:12:36;4.78;;;3.70;;
42420;SDS011;28063;48.140;11.588;2023-11-18T04:15:03;3.47;;;3.13;;
42420;SDS011;28063;48.140;11.588;2023-11-18T04:17:32;4.35;;;3.90;;
42420;SDS011;28063;48.140;11.588;2023-11-18T04:19:58;3.78;;;3.38;;
42420;SDS011;28063;48.140;11.588;2023-11-18T04:22:25;4.10;;;3.75;;
42420;SDS011;28063;48.140;11.588;2023-11-18T04:24:51;5.03;;;4.18;;
42420;SDS011;28063;48.140;11.588;2023-11-18T04:27:17;4.65;;;4.03;;
42420;SDS011;28063;48.140;11.588;2023-11-18T04:29:43;5.00;;;4.20;;
42420;SDS011;28063;48.140;11.588;2023-11-18T04:32:09;3.90;;;3.40;;
42420;SDS011;28063;48.140;11.588;2023-11-18T04:34:36;4.70;;;3.78;;
42420;SDS011;28063;48.140;11.588;2023-11-18T04:37:05;4.63;;;4.22;;
42420;SDS011;28063;48.140;11.588;2023-11-18T04:39:31;5.22;;;4.53;;
42420;SDS011;28063;48.140;11.588;2023-11-18T04:41:57;5.55;;;4.78;;
42420;SDS011;28063;48.140;11.588;2023-11-18T04:44:23;4.97;;;4.15;;
42420;SDS011;28063;48.140;11.588;2023-11-18T04:46:50;5.05;;;3.88;;
42420;SDS011;28063;48.140;11.588;2023-11-18T04:49:16;4.93;;;4.45;;
42420;SDS011;28063;48.140;11.588;2023-11-18T04:51:42;6.90;;;4.97;;
42420;SDS011;28063;48.140;11.588;2023-11-18T04:54:08;5.00;;;4.32;;
42420;SDS011;28063;48.140;11.588;2023-11-18T04:56:35;4.05;;;3.65;;
42420;SDS011;28063;48.140;11.588;2023-11-18T04:59:02;4.50;;;4.10;;
42420;SDS011;28063;48.140;11.588;2023-11-18T05:01:30;5.30;;;4.50;;
42420;SDS011;28063;48.140;11.588;2023-11-18T05:03:56;4.95;;;4.13;;
42420;SDS011;28063;48.140;11.588;2023-11-18T05:06:22;4.00;;;3.60;;
42420;SDS011;28063;48.140;11.588;2023-11-18T05:08:48;6.03;;;5.25;;
42420;SDS011;28063;48.140;11.588;2023-11-18T05:11:15;5.55;;;4.70;;
42420;SDS011;28063;48.140;11.588;2023-11-18T05:13:41;5.10;;;4.05;;
42420;SDS011;28063;48.140;11.588;2023-11-18T05:16:07;5.68;;;4.18;;
42420;SDS011;28063;48.140;11.588;2023-11-18T05:18:35;5.47;;;4.05;;
42420;SDS011;28063;48.140;11.588;2023-11-18T05:21:02;4.88;;;4.05;;
42420;SDS011;28063;48.140;11.588;2023-11-18T05:23:33;6.47;;;4.70;;
42420;SDS011;28063;48.140;11.588;2023-11-18T05:25:59;4.68;;;4.10;;
42420;SDS011;28063;48.140;11.588;2023-11-18T05:28:26;4.30;;;3.53;;
42420;SDS011;28063;48.140;11.588;2023-11-18T05:30:52;4.93;;;3.83;;
42420;SDS011;28063;48.140;11.588;2023-11-18T05:33:22;4.60;;;3.55;;
42420;SDS011;28063;48.140;11.588;2023-11-18T05:35:49;3.90;;;3.50;;
42420;SDS011;28063;48.140;11.588;2023-11-18T05:38:19;4.35;;;3.70;;
42420;SDS011;28063;48.140;11.588;2023-11-18T05:40:49;4.13;;;3.60;;
42420;SDS011;28063;48.140;11.588;2023-11-18T05:43:25;4.40;;;3.55;;
42420;SDS011;28063;48.140;11.588;2023-11-18T05:48:39;3.95;;;3.47;;
42420;SDS011;28063;48.140;11.588;2023-11-18T05:51:05;5.25;;;3.47;;
42420;SDS011;28063;48.140;11.588;2023-11-18T05:53:31;3.60;;;3.28;;
42420;SDS011;28063;48.140;11.588;2023-11-18T05:55:58;4.07;;;3.42;;
42420;SDS011;28063;48.140;11.588;2023-11-18T05:58:24;3.63;;;3.25;;
42420;SDS011;28063;48.140;11.588;2023-11-18T06:00:50;3.80;;;3.40;;
42420;SDS011;28063;48.140;11.588;2023-11-18T06:03:16;4.75;;;2.83;;
42420;SDS011;28063;48.140;11.588;2023-11-18T06:05:43;2.63;;;2.42;;
42420;SDS011;28063;48.140;11.588;2023-11-18T06:08:09;3.28;;;2.92;;
42420;SDS011;28063;48.140;11.588;2023-11-18T06:10:37;3.67;;;2.72;;
42420;SDS011;28063;48.140;11.588;2023-11-18T06:13:03;4.03;;;3.22;;
42420;SDS011;28063;48.140;11.588;2023-11-18T06:15:29;3.50;;;3.20;;
42420;SDS011;28063;48.140;11.588;2023-11-18T06:17:55;3.47;;;3.17;;
42420;SDS011;28063;48.140;11.588;2023-11-18T06:20:23;4.80;;;3.75;;
42420;SDS011;28063;48.140;11.588;2023-11-18T06:22:49;3.83;;;3.28;;
42420;SDS011;28063;48.140;11.588;2023-11-18T06:25:15;3.85;;;3.30;;
42420;SDS011;28063;48.140;11.588;2023-11-18T06:27:44;4.53;;;3.60;;
42420;SDS011;28063;48.140;11.588;2023-11-18T06:30:11;4.18;;;3.28;;
42420;SDS011;28063;48.140;11.588;2023-11-18T06:32:37;3.90;;;3.13;;
42420;SDS011;28063;48.140;11.588;2023-11-18T06:35:04;4.13;;;2.95;;
42420;SDS011;28063;48.140;11.588;2023-11-18T06:37:33;3.72;;;3.00;;
42420;SDS011;28063;48.140;11.588;2023-11-18T06:40:00;3.55;;;2.80;;
42420;SDS011;28063;48.140;11.588;2023-11-18T06:42:26;2.90;;;2.60;;
42420;SDS011;28063;48.140;11.588;2023-11-18T06:44:52;4.07;;;3.08;;
42420;SDS011;28063;48.140;11.588;2023-11-18T06:47:18;3.15;;;2.85;;
42420;SDS011;28063;48.140;11.588;2023-11-18T06:49:45;2.88;;;2.42;;
42420;SDS011;28063;48.140;11.588;2023-11-18T06:52:12;3.92;;;3.05;;
42420;SDS011;28063;48.140;11.588;2023-11-18T06:54:41;3.28;;;2.90;;
42420;SDS011;28063;48.140;11.588;2023-11-18T06:57:07;3.85;;;2.92;;
42420;SDS011;28063;48.140;11.588;2023-11-18T06:59:33;4.03;;;3.63;;
42420;SDS011;28063;48.140;11.588;2023-11-18T07:02:00;3.67;;;3.13;;
42420;SDS011;28063;48.140;11.588;2023-11-18T07:04:26;4.95;;;3.50;;
42420;SDS011;28063;48.140;11.588;2023-11-18T07:06:52;3.90;;;3.47;;
42420;SDS011;28063;48.140;11.588;2023-11-18T07:09:18;4.05;;;3.50;;
42420;SDS011;28063;48.140;11.588;2023-11-18T07:11:46;3.80;;;3.10;;
42420;SDS011;28063;48.140;11.588;2023-11-18T07:14:12;3.17;;;2.83;;
42420;SDS011;28063;48.140;11.588;2023-11-18T07:16:40;5.10;;;3.08;;
42420;SDS011;28063;48.140;11.588;2023-11-18T07:19:07;5.07;;;3.53;;
42420;SDS011;28063;48.140;11.588;2023-11-18T07:21:33;3.30;;;3.00;;
42420;SDS011;28063;48.140;11.588;2023-11-18T07:23:59;4.78;;;3.40;;
42420;SDS011;28063;48.140;11.588;2023-11-18T07:26:27;3.90;;;3.20;;
42420;SDS011;28063;48.140;11.588;2023-11-18T07:28:53;3.28;;;2.97;;
42420;SDS011;28063;48.140;11.588;2023-11-18T07:31:19;4.00;;;2.90;;
42420;SDS011;28063;48.140;11.588;2023-11-18T07:33:45;3.92;;;3.10;;
42420;SDS011;28063;48.140;11.588;2023-11-18T07:36:15;3.55;;;2.90;;
42420;SDS011;28063;48.140;11.588;2023-11-18T07:38:41;4.60;;;3.55;;
42420;SDS011;28063;48.140;11.588;2023-11-18T07:41:07;3.20;;;2.90;;
42420;SDS011;28063;48.140;11.588;2023-11-18T07:43:34;3.03;;;2.72;;
42420;SDS011;28063;48.140;11.588;2023-11-18T07:46:05;5.65;;;3.30;;
42420;SDS011;28063;48.140;11.588;2023-11-18T07:48:33;4.72;;;3.83;;
42420;SDS011;28063;48.140;11.588;2023-11-18T07:51:00;4.32;;;3.50;;
42420;SDS011;28063;48.140;11.588;2023-11-18T07:53:27;4.93;;;3.72;;
42420;SDS011;28063;48.140;11.588;2023-11-18T07:55:54;4.43;;;3.72;;
42420;SDS011;28063;48.140;11.588;2023-11-18T07:58:20;4.38;;;3.85;;
42420;SDS011;28063;48.140;11.588;2023-11-18T08:00:48;6.15;;;3.50;;
42420;SDS011;28063;48.140;11.588;2023-11-18T08:03:15;4.40;;;3.50;;
42420;SDS011;28063;48.140;11.588;2023-11-18T08:05:42;5.20;;;3.53;;
42420;SDS011;28063;48.140;11.588;2023-11-18T08:08:11;3.67;;;3.25;;
42420;SDS011;28063;48.140;11.588;2023-11-18T08:10:38;4.10;;;3.10;;
42420;SDS011;28063;48.140;11.588;2023-11-18T08:13:05;3.50;;;3.10;;
42420;SDS011;28063;48.140;11.588;2023-11-18T08:15:32;4.47;;;3.33;;
42420;SDS011;28063;48.140;11.588;2023-11-18T08:17:59;5.22;;;3.53;;
42420;SDS011;28063;48.140;11.588;2023-11-18T08:20:25;5.13;;;3.63;;
42420;SDS011;28063;48.140;11.588;2023-11-18T08:22:51;5.32;;;2.67;;
42420;SDS011;28063;48.140;11.588;2023-11-18T08:25:18;3.47;;;2.90;;
42420;SDS011;28063;48.140;11.588;2023-11-18T08:27:44;3.15;;;2.45;;
42420;SDS011;28063;48.140;11.588;2023-11-18T08:30:11;4.20;;;2.88;;
42420;SDS011;28063;48.140;11.588;2023-11-18T08:32:38;3.25;;;2.92;;
42420;SDS011;28063;48.140;11.588;2023-11-18T08:35:07;2.58;;;2.38;;
42420;SDS011;28063;48.140;11.588;2023-11-18T08:37:35;2.92;;;2.63;;
42420;SDS011;28063;48.140;11.588;2023-11-18T08:40:04;3.10;;;2.80;;
42420;SDS011;28063;48.140;11.588;2023-11-18T08:42:53;2.92;;;2.50;;
42420;SDS011;28063;48.140;11.588;2023-11-18T08:45:27;4.63;;;3.35;;
42420;SDS011;28063;48.140;11.588;2023-11-18T08:47:58;3.80;;;3.25;;
42420;SDS011;28063;48.140;11.588;2023-11-18T08:50:26;5.35;;;3.70;;
42420;SDS011;28063;48.140;11.588;2023-11-18T08:52:54;6.25;;;3.40;;
42420;SDS011;28063;48.140;11.588;2023-11-18T08:55:23;3.88;;;3.25;;
42420;SDS011;28063;48.140;11.588;2023-11-18T08:58:03;5.28;;;3.55;;
42420;SDS011;28063;48.140;11.588;2023-11-18T09:00:41;3.67;;;3.20;;
42420;SDS011;28063;48.140;11.588;2023-11-18T09:03:14;3.78;;;2.83;;
42420;SDS011;28063;48.140;11.588;2023-11-18T09:05:50;3.05;;;2.65;;
42420;SDS011;28063;48.140;11.588;2023-11-18T09:08:26;2.75;;;2.42;;
42420;SDS011;28063;48.140;11.588;2023-11-18T09:10:54;3.38;;;2.95;;
42420;SDS011;28063;48.140;11.588;2023-11-18T09:13:21;2.60;;;2.10;;
42420;SDS011;28063;48.140;11.588;2023-11-18T09:15:48;3.08;;;2.63;;
42420;SDS011;28063;48.140;11.588;2023-11-18T09:18:14;3.20;;;2.40;;
42420;SDS011;28063;48.140;11.588;2023-11-18T09:20:43;2.42;;;2.22;;
42420;SDS011;28063;48.140;11.588;2023-11-18T09:23:09;2.92;;;2.63;;
42420;SDS011;28063;48.140;11.588;2023-11-18T09:25:35;3.45;;;2.22;;
42420;SDS011;28063;48.140;11.588;2023-11-18T09:28:01;2.65;;;2.05;;
42420;SDS011;28063;48.140;11.588;2023-11-18T09:30:28;2.15;;;1.98;;
42420;SDS011;28063;48.140;11.588;2023-11-18T09:32:54;2.25;;;2.03;;
42420;SDS011;28063;48.140;11.588;2023-11-18T09:35:20;2.58;;;2.10;;
42420;SDS011;28063;48.140;11.588;2023-11-18T09:37:46;2.65;;;2.08;;
42420;SDS011;28063;48.140;11.588;2023-11-18T09:40:13;2.42;;;2.17;;
42420;SDS011;28063;48.140;11.588;2023-11-18T09:42:40;1.60;;;1.50;;
42420;SDS011;28063;48.140;11.588;2023-11-18T09:45:08;3.08;;;2.10;;
42420;SDS011;28063;48.140;11.588;2023-11-18T09:47:45;2.08;;;1.95;;
42420;SDS011;28063;48.140;11.588;2023-11-18T09:50:13;2.83;;;1.83;;
42420;SDS011;28063;48.140;11.588;2023-11-18T09:52:47;2.00;;;1.80;;
42420;SDS011;28063;48.140;11.588;2023-11-18T09:55:28;1.70;;;1.52;;
42420;SDS011;28063;48.140;11.588;2023-11-18T09:58:04;2.28;;;2.00;;
42420;SDS011;28063;48.140;11.588;2023-11-18T10:00:38;1.88;;;1.77;;
42420;SDS011;28063;48.140;11.588;2023-11-18T10:03:07;3.65;;;1.70;;
42420;SDS011;28063;48.140;11.588;2023-11-18T10:05:35;3.35;;;2.65;;
42420;SDS011;28063;48.140;11.588;2023-11-18T10:08:04;3.25;;;2.25;;
42420;SDS011;28063;48.140;11.588;2023-11-18T10:10:31;1.70;;;1.60;;
42420;SDS011;28063;48.140;11.588;2023-11-18T10:13:03;1.73;;;1.63;;
42420;SDS011;28063;48.140;11.588;2023-11-18T10:15:33;1.98;;;1.88;;
42420;SDS011;28063;48.140;11.588;2023-11-18T10:17:59;1.58;;;1.48;;
42420;SDS011;28063;48.140;11.588;2023-11-18T10:23:10;1.70;;;1.60;;
42420;SDS011;28063;48.140;11.588;2023-11-18T10:25:46;2.22;;;1.55;;
42420;SDS011;28063;48.140;11.588;2023-11-18T10:28:29;2.05;;;1.40;;
42420;SDS011;28063;48.140;11.588;2023-11-18T10:31:01;2.33;;;1.30;;
42420;SDS011;28063;48.140;11.588;2023-11-18T10:33:31;1.85;;;1.75;;
42420;SDS011;28063;48.140;11.588;2023-11-18T10:35:57;1.70;;;1.55;;
42420;SDS011;28063;48.140;11.588;2023-11-18T10:38:28;1.40;;;1.30;;
42420;SDS011;28063;48.140;11.588;2023-11-18T10:40:55;1.42;;;1.38;;
42420;SDS011;28063;48.140;11.588;2023-11-18T10:43:21;1.50;;;1.40;;
42420;SDS011;28063;48.140;11.588;2023-11-18T10:48:19;2.30;;;1.23;;
42420;SDS011;28063;48.140;11.588;2023-11-18T10:50:49;1.30;;;1.17;;
42420;SDS011;28063;48.140;11.588;2023-11-18T10:53:16;1.13;;;1.00;;
42420;SDS011;28063;48.140;11.588;2023-11-18T10:55:43;1.88;;;1.00;;
42420;SDS011;28063;48.140;11.588;2023-11-18T10:58:10;1.00;;;0.90;;
42420;SDS011;28063;48.140;11.588;2023-11-18T11:00:46;1.17;;;1.00;;
42420;SDS011;28063;48.140;11.588;2023-11-18T11:03:13;1.63;;;0.80;;
42420;SDS011;28063;48.140;11.588;2023-11-18T11:05:39;1.15;;;0.85;;
42420;SDS011;28063;48.140;11.588;2023-11-18T11:08:08;1.27;;;1.17;;
42420;SDS011;28063;48.140;11.588;2023-11-18T11:10:38;1.88;;;1.38;;
42420;SDS011;28063;48.140;11.588;2023-11-18T11:13:07;1.55;;;1.45;;
42420;SDS011;28063;48.140;11.588;2023-11-18T11:15:33;1.35;;;1.25;;
42420;SDS011;28063;48.140;11.588;2023-11-18T11:18:05;2.85;;;1.23;;
42420;SDS011;28063;48.140;11.588;2023-11-18T11:20:37;1.13;;;1.02;;
42420;SDS011;28063;48.140;11.588;2023-11-18T11:28:15;0.70;;;0.70;;
42420;SDS011;28063;48.140;11.588;2023-11-18T11:30:46;0.70;;;0.70;;
42420;SDS011;28063;48.140;11.588;2023-11-18T11:33:29;0.70;;;0.70;;
42420;SDS011;28063;48.140;11.588;2023-11-18T11:36:05;1.08;;;0.98;;
42420;SDS011;28063;48.140;11.588;2023-11-18T11:38:36;1.03;;;0.80;;
42420;SDS011;28063;48.140;11.588;2023-11-18T11:41:03;1.15;;;1.05;;
42420;SDS011;28063;48.140;11.588;2023-11-18T11:43:30;4.53;;;1.17;;
42420;SDS011;28063;48.140;11.588;2023-11-18T11:45:59;1.25;;;1.15;;
42420;SDS011;28063;48.140;11.588;2023-11-18T11:48:35;2.47;;;1.08;;
42420;SDS011;28063;48.140;11.588;2023-11-18T11:53:37;0.90;;;0.90;;
42420;SDS011;28063;48.140;11.588;2023-11-18T11:56:10;2.00;;;1.15;;
42420;SDS011;28063;48.140;11.588;2023-11-18T11:58:39;3.25;;;1.70;;
42420;SDS011;28063;48.140;11.588;2023-11-18T12:03:43;0.80;;;0.80;;
42420;SDS011;28063;48.140;11.588;2023-11-18T12:06:13;0.50;;;0.50;;
42420;SDS011;28063;48.140;11.588;2023-11-18T12:08:48;1.02;;;0.80;;
42420;SDS011;28063;48.140;11.588;2023-11-18T12:11:17;1.42;;;1.17;;
42420;SDS011;28063;48.140;11.588;2023-11-18T12:14:02;0.70;;;0.70;;
42420;SDS011;28063;48.140;11.588;2023-11-18T12:19:32;0.80;;;0.43;;
42420;SDS011;28063;48.140;11.588;2023-11-18T12:22:02;0.93;;;0.75;;
42420;SDS011;28063;48.140;11.588;2023-11-18T12:24:38;0.88;;;0.70;;
42420;SDS011;28063;48.140;11.588;2023-11-18T12:27:05;0.85;;;0.85;;
42420;SDS011;28063;48.140;11.588;2023-11-18T12:32:03;1.58;;;1.05;;
42420;SDS011;28063;48.140;11.588;2023-11-18T12:34:49;1.75;;;0.90;;
42420;SDS011;28063;48.140;11.588;2023-11-18T12:40:04;0.93;;;0.65;;
42420;SDS011;28063;48.140;11.588;2023-11-18T12:45:17;2.05;;;0.88;;
42420;SDS011;28063;48.140;11.588;2023-11-18T12:47:49;0.82;;;0.68;;
42420;SDS011;28063;48.140;11.588;2023-11-18T12:50:17;1.42;;;0.98;;
42420;SDS011;28063;48.140;11.588;2023-11-18T12:52:52;1.40;;;0.60;;
42420;SDS011;28063;48.140;11.588;2023-11-18T12:55:19;2.25;;;1.02;;
42420;SDS011;28063;48.140;11.588;2023-11-18T12:57:46;2.28;;;0.60;;
42420;SDS011;28063;48.140;11.588;2023-11-18T13:00:13;0.50;;;0.40;;
42420;SDS011;28063;48.140;11.588;2023-11-18T13:02:42;0.70;;;0.70;;
42420;SDS011;28063;48.140;11.588;2023-11-18T13:05:08;0.40;;;0.40;;
42420;SDS011;28063;48.140;11.588;2023-11-18T13:07:35;0.77;;;0.63;;
42420;SDS011;28063;48.140;11.588;2023-11-18T13:10:02;0.57;;;0.40;;
42420;SDS011;28063;48.140;11.588;2023-11-18T13:12:29;1.38;;;0.60;;
42420;SDS011;28063;48.140;11.588;2023-11-18T13:14:55;0.32;;;0.30;;
42420;SDS011;28063;48.140;11.588;2023-11-18T13:17:22;0.50;;;0.50;;
42420;SDS011;28063;48.140;11.588;2023-11-18T13:19:48;0.95;;;0.50;;
42420;SDS011;28063;48.140;11.588;2023-11-18T13:22:19;0.55;;;0.50;;
42420;SDS011;28063;48.140;11.588;2023-11-18T13:24:45;0.40;;;0.40;;
42420;SDS011;28063;48.140;11.588;2023-11-18T13:27:15;1.60;;;0.80;;
42420;SDS011;28063;48.140;11.588;2023-11-18T13:29:45;1.20;;;0.70;;
42420;SDS011;28063;48.140;11.588;2023-11-18T13:32:13;0.63;;;0.40;;
42420;SDS011;28063;48.140;11.588;2023-11-18T13:34:41;0.38;;;0.38;;
42420;SDS011;28063;48.140;11.588;2023-11-18T13:37:07;1.25;;;0.60;;
42420;SDS011;28063;48.140;11.588;2023-11-18T13:39:36;0.65;;;0.32;;
42420;SDS011;28063;48.140;11.588;2023-11-18T13:42:23;0.40;;;0.40;;
42420;SDS011;28063;48.140;11.588;2023-11-18T13:44:51;0.70;;;0.52;;
42420;SDS011;28063;48.140;11.588;2023-11-18T13:47:18;0.43;;;0.40;;
42420;SDS011;28063;48.140;11.588;2023-11-18T13:49:44;0.30;;;0.30;;
42420;SDS011;28063;48.140;11.588;2023-11-18T13:52:12;0.73;;;0.68;;
42420;SDS011;28063;48.140;11.588;2023-11-18T13:54:40;0.65;;;0.30;;
42420;SDS011;28063;48.140;11.588;2023-11-18T13:57:10;0.98;;;0.40;;
42420;SDS011;28063;48.140;11.588;2023-11-18T13:59:36;0.65;;;0.50;;
42420;SDS011;28063;48.140;11.588;2023-11-18T14:02:03;0.20;;;0.20;;
42420;SDS011;28063;48.140;11.588;2023-11-18T14:04:30;0.40;;;0.40;;
42420;SDS011;28063;48.140;11.588;2023-11-18T14:07:01;1.23;;;0.60;;
42420;SDS011;28063;48.140;11.588;2023-11-18T14:09:30;0.40;;;0.40;;
42420;SDS011;28063;48.140;11.588;2023-11-18T14:11:58;1.08;;;0.60;;
42420;SDS011;28063;48.140;11.588;2023-11-18T14:14:24;0.57;;;0.40;;
42420;SDS011;28063;48.140;11.588;2023-11-18T14:16:53;0.75;;;0.57;;
42420;SDS011;28063;48.140;11.588;2023-11-18T14:19:23;0.45;;;0.40;;
42420;SDS011;28063;48.140;11.588;2023-11-18T14:21:55;1.65;;;0.45;;
42420;SDS011;28063;48.140;11.588;2023-11-18T14:24:22;0.40;;;0.40;;
42420;SDS011;28063;48.140;11.588;2023-11-18T14:26:52;0.47;;;0.40;;
42420;SDS011;28063;48.140;11.588;2023-11-18T14:29:18;0.70;;;0.70;;
42420;SDS011;28063;48.140;11.588;2023-11-18T14:31:44;0.60;;;0.50;;
42420;SDS011;28063;48.140;11.588;2023-11-18T14:34:11;0.38;;;0.35;;
42420;SDS011;28063;48.140;11.588;2023-11-18T14:36:37;0.77;;;0.40;;
42420;SDS011;28063;48.140;11.588;2023-11-18T14:39:03;0.75;;;0.40;;
42420;SDS011;28063;48.140;11.588;2023-11-18T14:41:30;2.35;;;0.70;;
42420;SDS011;28063;48.140;11.588;2023-11-18T14:43:59;0.65;;;0.45;;
42420;SDS011;28063;48.140;11.588;2023-11-18T14:48:56;0.50;;;0.50;;
42420;SDS011;28063;48.140;11.588;2023-11-18T14:51:22;2.55;;;0.60;;
42420;SDS011;28063;48.140;11.588;2023-11-18T14:53:48;1.00;;;0.70;;
42420;SDS011;28063;48.140;11.588;2023-11-18T14:56:15;0.75;;;0.50;;
42420;SDS011;28063;48.140;11.588;2023-11-18T14:58:42;0.95;;;0.50;;
42420;SDS011;28063;48.140;11.588;2023-11-18T15:01:10;0.50;;;0.50;;
42420;SDS011;28063;48.140;11.588;2023-11-18T15:03:36;0.43;;;0.40;;
42420;SDS011;28063;48.140;11.588;2023-11-18T15:06:02;0.65;;;0.55;;
42420;SDS011;28063;48.140;11.588;2023-11-18T15:08:31;0.52;;;0.40;;
42420;SDS011;28063;48.140;11.588;2023-11-18T15:10:57;0.57;;;0.40;;